createdAt,value
2019-05-17T10:45:15.134Z,100635.65
2019-05-17T10:47:50.262Z,100639.58
2019-05-17T10:50:23.929Z,100636.50
2019-05-17T10:53:00.198Z,100636.02
2019-05-17T10:55:32.825Z,100642.66
2019-05-17T10:58:06.273Z,100642.36
2019-05-17T11:00:41.442Z,100638.37
2019-05-17T11:03:15.152Z,100632.98
2019-05-17T11:05:50.261Z,100646.61
2019-05-17T11:08:23.613Z,100641.12
2019-05-17T11:10:59.433Z,100646.17
2019-05-17T11:13:32.135Z,100641.23
2019-05-17T11:16:05.536Z,100638.58
2019-05-17T11:18:38.892Z,100639.33
2019-05-17T11:21:13.099Z,100641.98
2019-05-17T11:23:46.482Z,100640.98
2019-05-17T11:26:19.875Z,100635.80
2019-05-17T11:28:53.227Z,100638.69
2019-05-17T11:31:26.629Z,100634.96
2019-05-17T11:34:00.142Z,100638.03
2019-05-17T11:36:33.582Z,100636.17
2019-05-17T11:39:08.559Z,100635.70
2019-05-17T11:41:42.356Z,100640.16
2019-05-17T11:44:15.970Z,100638.67
2019-05-17T11:46:50.226Z,100641.02
2019-05-17T11:49:24.460Z,100640.70
2019-05-17T11:51:58.308Z,100638.62
2019-05-17T11:54:31.939Z,100645.53
2019-05-17T11:57:05.415Z,100641.00
2019-05-17T11:59:38.859Z,100642.17
2019-05-17T12:02:15.781Z,100644.13
2019-05-17T12:04:49.260Z,100647.77
2019-05-17T12:07:23.062Z,100649.16
2019-05-17T12:09:57.469Z,100648.62
2019-05-17T12:12:31.027Z,100647.56
2019-05-17T12:15:04.510Z,100652.78
2019-05-17T12:17:37.984Z,100651.13
2019-05-17T12:20:14.422Z,100652.28
2019-05-17T12:22:47.831Z,100660.00
2019-05-17T12:25:21.432Z,100654.45
2019-05-17T12:27:54.858Z,100651.59
2019-05-17T12:30:28.275Z,100650.41
2019-05-17T12:33:01.625Z,100657.94
2019-05-17T12:35:35.023Z,100656.86
2019-05-17T12:38:08.420Z,100653.61
2019-05-17T12:40:41.868Z,100656.58
2019-05-17T12:43:15.316Z,100660.41
2019-05-17T12:46:00.112Z,100654.03
2019-05-17T12:48:25.738Z,100655.83
2019-05-17T12:50:59.181Z,100652.62
2019-05-17T12:53:33.985Z,100649.63
2019-05-17T12:56:07.506Z,100645.84
2019-05-17T12:58:41.953Z,100642.25
2019-05-17T13:01:15.376Z,100636.84
2019-05-17T13:03:48.848Z,100642.86
2019-05-17T13:06:23.729Z,100639.63
2019-05-17T13:08:57.161Z,100642.95
2019-05-17T13:11:30.591Z,100645.67
2019-05-17T13:14:04.040Z,100651.45
2019-05-17T13:16:37.505Z,100643.87
2019-05-17T13:19:11.473Z,100637.66
2019-05-17T13:21:45.108Z,100641.55
2019-05-17T13:24:18.598Z,100643.42
2019-05-17T13:26:52.127Z,100650.25
2019-05-17T13:29:25.604Z,100649.61
2019-05-17T13:31:59.067Z,100647.73
2019-05-17T13:34:32.555Z,100656.45
2019-05-17T13:37:06.276Z,100654.72
2019-05-17T13:39:41.070Z,100648.08
2019-05-17T13:42:14.477Z,100651.75
2019-05-17T13:44:47.872Z,100644.26
2019-05-17T13:47:21.311Z,100641.40
2019-05-17T13:49:54.708Z,100634.34
2019-05-17T13:52:28.135Z,100638.72
2019-05-17T13:55:02.400Z,100647.30
2019-05-17T13:57:36.115Z,100637.56
2019-05-17T14:00:11.557Z,100634.75
2019-05-17T14:02:44.978Z,100639.53
2019-05-17T14:05:18.614Z,100631.55
2019-05-17T14:07:52.234Z,100637.25
2019-05-17T14:10:28.715Z,100632.40
2019-05-17T14:13:00.726Z,100630.28
2019-05-17T14:15:34.369Z,100620.38
2019-05-17T14:18:08.441Z,100619.84
2019-05-17T14:20:41.907Z,100627.13
2019-05-17T14:23:15.344Z,100624.41
2019-05-17T14:25:48.776Z,100618.81
2019-05-17T14:28:22.258Z,100618.81
2019-05-17T14:30:57.065Z,100621.56
2019-05-17T14:33:31.577Z,100618.33
2019-05-17T14:36:04.952Z,100608.95
2019-05-17T14:38:38.453Z,100608.63
2019-05-17T14:41:11.880Z,100607.96
2019-05-17T14:43:45.317Z,100606.48
2019-05-17T14:46:18.759Z,100606.64
2019-05-17T14:48:52.267Z,100603.43
2019-05-17T14:51:25.699Z,100602.72
2019-05-17T14:53:59.158Z,100597.41
2019-05-17T14:56:32.617Z,100596.00
2019-05-17T14:59:06.431Z,100581.12
2019-05-17T15:27:24.758Z,100575.77
2019-05-17T15:29:58.231Z,100573.46
2019-05-17T15:32:31.675Z,100574.06
2019-05-17T15:35:05.672Z,100568.75
2019-05-17T15:37:39.089Z,100571.19
2019-05-17T15:40:12.753Z,100569.54
2019-05-17T15:42:46.215Z,100566.17
2019-05-17T15:45:20.050Z,100571.40
2019-05-17T15:47:53.472Z,100569.43
2019-05-17T15:50:26.943Z,100561.38
2019-05-17T15:53:00.353Z,100560.37
2019-05-17T15:55:33.759Z,100554.73
2019-05-17T15:58:07.221Z,100556.21
2019-05-17T16:00:40.760Z,100554.11
2019-05-17T16:03:14.265Z,100544.32
2019-05-17T16:05:47.718Z,100544.73
2019-05-17T16:08:21.498Z,100541.52
2019-05-17T16:10:54.924Z,100548.08
2019-05-17T16:13:28.852Z,100538.22
2019-05-17T16:16:02.297Z,100542.21
2019-05-17T16:18:36.003Z,100536.20
2019-05-17T16:21:09.581Z,100540.19
2019-05-17T16:23:43.055Z,100536.20
2019-05-17T16:26:16.487Z,100533.61
2019-05-17T16:28:49.930Z,100532.75
2019-05-17T16:31:23.386Z,100531.80
2019-05-17T16:33:57.826Z,100537.05
2019-05-17T16:36:31.252Z,100533.00
2019-05-17T16:39:08.319Z,100533.06
2019-05-17T16:41:40.724Z,100535.31
2019-05-17T16:44:14.755Z,100529.07
2019-05-17T16:46:51.821Z,100543.30
2019-05-17T16:49:43.627Z,100544.63
2019-05-17T16:52:17.826Z,100537.77
2019-05-17T16:54:52.727Z,100542.13
2019-05-17T16:57:26.493Z,100542.98
2019-05-17T17:00:00.451Z,100539.88
2019-05-17T17:02:34.027Z,100531.49
2019-05-17T17:05:07.834Z,100532.44
2019-05-17T17:07:41.249Z,100530.33
2019-05-17T17:10:15.093Z,100529.00
2019-05-17T17:12:48.797Z,100527.19
2019-05-17T17:15:22.829Z,100533.91
2019-05-17T17:17:56.262Z,100534.55
2019-05-17T17:20:29.984Z,100534.55
2019-05-17T17:23:03.448Z,100532.37
2019-05-17T17:25:36.881Z,100535.03
2019-05-17T17:28:10.288Z,100535.09
2019-05-17T17:30:43.750Z,100530.31
2019-05-17T17:33:17.603Z,100529.05
2019-05-17T17:35:51.034Z,100529.59
2019-05-17T17:38:24.462Z,100527.51
2019-05-17T17:40:57.891Z,100530.37
2019-05-17T17:43:31.337Z,100532.68
2019-05-17T17:46:04.751Z,100538.95
2019-05-17T17:48:38.150Z,100541.30
2019-05-17T17:51:11.818Z,100536.52
2019-05-17T17:53:45.235Z,100540.20
2019-05-17T17:56:18.631Z,100546.05
2019-05-17T17:58:53.048Z,100542.23
2019-05-17T18:01:26.487Z,100540.96
2019-05-17T18:03:59.937Z,100545.48
2019-05-17T18:06:33.385Z,100548.91
2019-05-17T18:09:07.690Z,100549.67
2019-05-17T18:11:41.107Z,100546.98
2019-05-17T18:14:14.569Z,100550.33
2019-05-17T18:16:48.026Z,100553.69
2019-05-17T18:19:21.649Z,100557.89
2019-05-17T18:21:55.082Z,100553.86
2019-05-17T18:24:28.472Z,100566.35
2019-05-17T18:27:01.906Z,100563.53
2019-05-17T18:29:35.315Z,100563.42
2019-05-17T18:32:08.744Z,100569.48
2019-05-17T18:34:42.847Z,100570.90
2019-05-17T18:37:16.295Z,100574.26
2019-05-17T18:39:49.710Z,100579.98
2019-05-17T18:42:23.110Z,100580.56
2019-05-17T18:44:56.594Z,100591.06
2019-05-17T18:47:30.072Z,100587.95
2019-05-17T18:50:03.515Z,100585.61
2019-05-17T18:52:37.114Z,100588.92
2019-05-17T18:55:10.606Z,100592.91
2019-05-17T18:57:44.164Z,100601.53
2019-05-17T19:00:18.547Z,100601.26
2019-05-17T19:02:52.061Z,100605.05
2019-05-17T19:05:25.504Z,100603.91
2019-05-17T19:07:59.137Z,100609.94
2019-05-17T19:10:32.619Z,100607.91
2019-05-17T19:13:06.068Z,100610.31
2019-05-17T19:15:39.507Z,100614.86
2019-05-17T19:18:13.001Z,100607.62
2019-05-17T19:20:47.524Z,100616.56
2019-05-17T19:23:21.088Z,100611.31
2019-05-17T19:25:54.538Z,100610.97
2019-05-17T19:28:28.216Z,100608.07
2019-05-17T19:31:04.068Z,100609.08
2019-05-17T19:33:39.238Z,100608.32
2019-05-17T19:36:12.835Z,100610.88
2019-05-17T19:38:48.180Z,100609.63
2019-05-17T19:41:21.660Z,100608.87
2019-05-17T19:43:57.115Z,100611.05
2019-05-17T19:46:30.549Z,100608.81
2019-05-17T19:49:05.016Z,100611.23
2019-05-17T19:51:38.494Z,100608.38
2019-05-17T19:54:11.961Z,100606.88
2019-05-17T19:56:45.332Z,100608.82
2019-05-17T19:59:18.831Z,100603.27
2019-05-17T20:01:52.286Z,100600.27
2019-05-17T20:04:25.784Z,100606.42
2019-05-17T20:06:59.162Z,100603.36
2019-05-17T20:09:32.623Z,100598.58
2019-05-17T20:12:06.094Z,100598.36
2019-05-17T20:14:39.520Z,100603.36
2019-05-17T20:17:12.973Z,100602.63
2019-05-17T20:19:46.483Z,100599.34
2019-05-17T20:22:19.933Z,100596.36
2019-05-17T20:24:53.422Z,100600.20
2019-05-17T20:27:26.913Z,100598.07
2019-05-17T20:30:00.507Z,100596.02
2019-05-17T20:32:35.461Z,100600.03
2019-05-17T20:35:10.351Z,100598.36
2019-05-17T20:37:43.754Z,100598.02
2019-05-17T20:40:18.088Z,100597.25
2019-05-17T20:42:51.512Z,100599.52
2019-05-17T20:45:33.263Z,100601.18
2019-05-17T20:48:10.083Z,100594.99
2019-05-17T20:50:43.566Z,100599.56
2019-05-17T20:53:19.216Z,100590.92
2019-05-17T20:55:52.059Z,100595.06
2019-05-17T20:58:25.493Z,100596.05
2019-05-17T21:00:59.067Z,100594.25
2019-05-17T21:03:32.431Z,100597.11
2019-05-17T21:06:06.488Z,100596.25
2019-05-17T21:08:46.002Z,100595.13
2019-05-17T21:11:15.279Z,100596.58
2019-05-17T21:13:48.723Z,100597.90
2019-05-17T21:16:22.239Z,100598.75
2019-05-17T21:18:55.659Z,100595.27
2019-05-17T21:21:29.119Z,100599.35
2019-05-17T21:24:02.615Z,100596.41
2019-05-17T21:26:36.125Z,100600.53
2019-05-17T21:29:09.535Z,100596.68
2019-05-17T21:31:42.944Z,100591.43
2019-05-17T21:34:16.325Z,100594.19
2019-05-17T21:36:49.804Z,100597.34
2019-05-17T21:39:24.253Z,100597.43
2019-05-17T21:41:57.727Z,100599.37
2019-05-17T21:44:31.107Z,100601.55
2019-05-17T21:47:05.205Z,100600.39
2019-05-17T21:49:38.749Z,100603.58
2019-05-17T21:52:13.088Z,100602.91
2019-05-17T21:54:46.590Z,100601.62
2019-05-17T21:57:20.390Z,100601.59
2019-05-17T21:59:53.830Z,100605.59
2019-05-17T22:02:27.290Z,100594.66
2019-05-17T22:05:00.718Z,100595.05
2019-05-17T22:07:34.233Z,100593.52
2019-05-17T22:10:07.819Z,100594.41
2019-05-17T22:12:41.281Z,100593.88
2019-05-17T22:15:15.768Z,100598.77
2019-05-17T22:17:49.217Z,100593.82
2019-05-17T22:20:22.677Z,100589.04
2019-05-17T22:22:55.951Z,100587.64
2019-05-17T22:25:29.343Z,100596.11
2019-05-17T22:28:03.065Z,100588.37
2019-05-17T22:30:36.426Z,100591.16
2019-05-17T22:33:09.715Z,100585.52
2019-05-17T22:35:43.064Z,100590.80
2019-05-17T22:38:16.436Z,100595.02
2019-05-17T22:40:49.740Z,100591.66
2019-05-17T22:43:23.125Z,100595.98
2019-05-17T22:45:56.328Z,100589.73
2019-05-17T22:48:29.705Z,100577.95
2019-05-17T22:51:03.030Z,100584.34
2019-05-17T22:53:36.367Z,100587.48
2019-05-17T22:56:09.837Z,100580.66
2019-05-17T22:58:44.552Z,100586.52
2019-05-17T23:01:17.793Z,100580.88
2019-05-17T23:03:51.212Z,100584.83
2019-05-17T23:06:24.600Z,100583.48
2019-05-17T23:08:58.031Z,100587.30
2019-05-17T23:11:31.242Z,100592.13
2019-05-17T23:14:04.692Z,100596.11
2019-05-17T23:16:50.581Z,100589.12
2019-05-17T23:19:13.107Z,100591.54
2019-05-17T23:21:46.393Z,100589.83
2019-05-17T23:24:20.787Z,100605.24
2019-05-17T23:26:54.158Z,100602.60
2019-05-17T23:29:27.430Z,100599.56
2019-05-17T23:32:00.708Z,100598.74
2019-05-17T23:34:34.083Z,100597.95
2019-05-17T23:37:07.882Z,100599.27
2019-05-17T23:39:41.232Z,100598.88
2019-05-17T23:42:14.501Z,100599.47
2019-05-17T23:44:48.988Z,100596.41
2019-05-17T23:47:22.333Z,100599.84
2019-05-17T23:49:55.723Z,100594.06
2019-05-17T23:52:29.075Z,100592.77
2019-05-17T23:55:02.548Z,100594.59
2019-05-17T23:57:35.992Z,100596.83
